Terminal Aerodrome Forecast
Issued by NWS Wilmington, OH

Current Version | Previous Version | Text Only | Print | Product List | Glossary Off
Versions: 1 2 3 4 5 6 7 8 9 10 11 12 13 14 15 16 17 18 19 20 21 22 23

182
FTUS41 KILN 271738
TAFDAY
TAF
KDAY 271738Z 2718/2818 18009KT P6SM BKN025 OVC035
     FM271900 18009KT P6SM -SHRA OVC015
     FM272100 17009KT P6SM VCSH OVC015
     FM272300 17008KT P6SM VCSH OVC040
     FM280100 16005KT P6SM BKN040
     FM281100 17009KT P6SM VCSH OVC015
     FM281500 18011G19KT 5SM -SHRA OVC007=

USA.gov is the U.S. government's official web portal to all federal, state and local government web resources and services.